Main page
METAR-TAF:

METAR-TAF

Airports :

Perpignan–Rivesaltes Airport

Perpignan, France

latitude: 42-44N, longitude: 002-52E, elevation: 43 m

Current weather observation

The report was made 6 minutes ago, at 12:30 UTC
Wind 5 kt from the West, varying between Southwest and North
Temperature 22°C
Humidity 50%
Pressure 1009 hPa
Visibility 10 km or more

METAR: LFMP 201230Z AUTO 28005KT 220V360 9999 FEW048/// BKN074/// ///CB 22/11 Q1009 BECMG FEW025 BKN035 BKN050

Time: 14:36 (12:36 UTC)

Forecast

The report was made 4 hours and 36 minutes ago, at 08:00 UTC
Forecast valid from 20 at 09 UTC to 21 at 09 UTC
Wind 10 kt from the West/Northwest
Visibility 10 km or more
Few clouds at a height of 2500 ft
Broken clouds at a height of 3500 ft
Broken clouds at a height of 5000 ft

TAF: LFMP 200800Z 2009/2109 30010KT 9999 FEW025 BKN035 BKN050

Weather observations and forecasts of more than 4000 airports (METAR and TAF reports).

The available stations are represented by yellow and red dots on the map.

Hover mouse over dot to see the name of the station.

Then click to see weather observations and forecasts.

To change the map : click on the green buttons with a black cross to zoom in, on the green button with a dash to zoom out, or on the green arrows for adjacent maps.


METAR-TAF: